createdAt,value
2023-05-01T00:00:54.414Z,3.20
2023-05-01T00:03:21.820Z,2.72
2023-05-01T00:05:49.293Z,2.97
2023-05-01T00:08:16.489Z,2.90
2023-05-01T00:10:43.454Z,3.17
2023-05-01T00:13:10.818Z,2.75
2023-05-01T00:15:38.070Z,3.10
2023-05-01T00:18:05.343Z,3.40
2023-05-01T00:20:32.657Z,3.00
2023-05-01T00:22:59.870Z,2.80
2023-05-01T00:25:27.617Z,2.95
2023-05-01T00:27:54.812Z,2.70
2023-05-01T00:30:22.010Z,2.67
2023-05-01T00:32:49.268Z,3.20
2023-05-01T00:35:16.802Z,3.08
2023-05-01T00:37:43.659Z,3.22
2023-05-01T00:40:11.245Z,3.10
2023-05-01T00:42:39.544Z,2.97
2023-05-01T00:45:07.799Z,2.85
2023-05-01T00:47:38.496Z,3.20
2023-05-01T00:50:06.334Z,3.22
2023-05-01T00:52:33.810Z,3.15
2023-05-01T00:55:01.178Z,3.10
2023-05-01T00:57:28.326Z,2.85
2023-05-01T00:59:55.917Z,2.90
2023-05-01T01:02:23.639Z,3.00
2023-05-01T01:04:51.425Z,2.95
2023-05-01T01:07:21.518Z,3.30
2023-05-01T01:09:48.737Z,3.53
2023-05-01T01:12:17.204Z,3.20
2023-05-01T01:15:02.509Z,2.72
2023-05-01T01:17:41.779Z,2.55
2023-05-01T01:20:38.148Z,3.07
2023-05-01T01:23:21.523Z,2.60
2023-05-01T01:26:07.252Z,3.58
2023-05-01T01:28:58.852Z,3.28
2023-05-01T01:31:37.640Z,3.17
2023-05-01T01:34:19.076Z,3.77
2023-05-01T01:37:08.026Z,3.28
2023-05-01T01:39:52.448Z,3.40
2023-05-01T01:42:26.834Z,2.90
2023-05-01T01:44:56.616Z,3.40
2023-05-01T01:47:29.178Z,3.37
2023-05-01T01:49:57.649Z,3.22
2023-05-01T01:52:26.396Z,3.47
2023-05-01T01:54:58.796Z,3.25
2023-05-01T01:57:27.267Z,3.03
2023-05-01T01:59:56.206Z,3.53
2023-05-01T02:02:24.855Z,3.13
2023-05-01T02:04:52.875Z,2.80
2023-05-01T02:07:20.712Z,3.33
2023-05-01T02:09:50.366Z,3.40
2023-05-01T02:12:18.745Z,3.07
2023-05-01T02:14:47.381Z,4.45
2023-05-01T02:17:15.804Z,3.53
2023-05-01T02:19:44.990Z,3.60
2023-05-01T02:22:12.368Z,3.78
2023-05-01T02:24:42.304Z,3.33
2023-05-01T02:27:30.879Z,3.55
2023-05-01T02:29:58.436Z,3.65
2023-05-01T02:32:26.538Z,3.40
2023-05-01T02:34:53.979Z,3.45
2023-05-01T02:37:21.310Z,3.47
2023-05-01T02:39:48.819Z,3.70
2023-05-01T02:42:17.708Z,3.30
2023-05-01T02:44:55.382Z,3.55
2023-05-01T02:47:23.766Z,3.80
2023-05-01T02:49:52.852Z,3.50
2023-05-01T02:52:20.737Z,3.65
2023-05-01T02:54:51.293Z,3.58
2023-05-01T02:57:18.514Z,3.38
2023-05-01T02:59:45.730Z,3.85
2023-05-01T03:02:13.298Z,3.50
2023-05-01T03:04:41.822Z,4.13
2023-05-01T03:07:09.206Z,3.40
2023-05-01T03:09:37.004Z,3.72
2023-05-01T03:12:04.245Z,3.40
2023-05-01T03:14:31.177Z,3.80
2023-05-01T03:16:58.508Z,3.65
2023-05-01T03:19:25.979Z,3.90
2023-05-01T03:21:53.247Z,3.85
2023-05-01T03:24:20.968Z,3.08
2023-05-01T03:26:48.703Z,4.20
2023-05-01T03:29:15.956Z,3.10
2023-05-01T03:31:43.748Z,3.50
2023-05-01T03:34:11.567Z,4.38
2023-05-01T03:36:39.056Z,3.95
2023-05-01T03:39:08.592Z,3.83
2023-05-01T03:41:54.625Z,3.88
2023-05-01T03:44:27.674Z,4.05
2023-05-01T03:46:54.665Z,3.30
2023-05-01T03:49:26.248Z,4.38
2023-05-01T03:51:53.473Z,4.40
2023-05-01T03:54:20.733Z,3.78
2023-05-01T03:57:09.478Z,3.95
2023-05-01T03:59:37.660Z,3.80
2023-05-01T04:02:05.202Z,4.32
2023-05-01T04:04:36.188Z,3.57
2023-05-01T04:07:03.781Z,4.13
2023-05-01T04:09:31.059Z,4.35
2023-05-01T04:11:58.610Z,4.00
2023-05-01T04:14:25.910Z,3.63
2023-05-01T04:16:53.224Z,4.30
2023-05-01T04:19:20.497Z,3.40
2023-05-01T04:21:51.736Z,3.85
2023-05-01T04:24:18.971Z,4.20
2023-05-01T04:26:46.286Z,3.33
2023-05-01T04:29:13.556Z,3.87
2023-05-01T04:31:41.720Z,3.85
2023-05-01T04:34:09.169Z,3.95
2023-05-01T04:36:37.818Z,3.88
2023-05-01T04:39:05.403Z,3.83
2023-05-01T04:41:33.386Z,3.53
2023-05-01T04:44:00.980Z,4.10
2023-05-01T04:46:28.423Z,3.88
2023-05-01T04:48:55.670Z,3.97
2023-05-01T04:51:22.565Z,3.80
2023-05-01T04:53:50.772Z,3.50
2023-05-01T04:56:22.475Z,2.97
2023-05-01T04:58:53.325Z,3.75
2023-05-01T05:01:23.334Z,4.00
2023-05-01T05:03:51.134Z,3.90
2023-05-01T05:06:18.752Z,4.23
2023-05-01T05:08:45.787Z,3.92
2023-05-01T05:11:13.371Z,4.40
2023-05-01T05:13:49.936Z,3.70
2023-05-01T05:16:17.555Z,4.63
2023-05-01T05:18:44.869Z,4.30
2023-05-01T05:21:12.075Z,4.45
2023-05-01T05:23:44.842Z,4.40
2023-05-01T05:26:12.361Z,4.13
2023-05-01T05:28:40.919Z,3.90
2023-05-01T05:31:08.610Z,4.13
2023-05-01T05:33:36.442Z,4.22
2023-05-01T05:36:04.326Z,4.40
2023-05-01T05:38:38.635Z,4.28
2023-05-01T05:41:07.781Z,4.68
2023-05-01T05:43:35.366Z,4.30
2023-05-01T05:46:02.771Z,4.38
2023-05-01T05:48:33.083Z,3.40
2023-05-01T05:51:00.854Z,4.10
2023-05-01T05:53:28.358Z,4.30
2023-05-01T05:55:55.613Z,4.40
2023-05-01T05:58:24.644Z,4.20
2023-05-01T06:00:55.994Z,3.83
2023-05-01T06:03:23.720Z,4.20
2023-05-01T06:05:54.889Z,4.30
2023-05-01T06:08:22.499Z,4.27
2023-05-01T06:10:49.792Z,4.03
2023-05-01T06:13:17.044Z,4.40
2023-05-01T06:15:46.900Z,4.50
2023-05-01T06:18:14.578Z,4.03
2023-05-01T06:20:42.761Z,4.60
2023-05-01T06:23:10.756Z,4.30
2023-05-01T06:25:43.251Z,4.88
2023-05-01T06:28:10.968Z,4.20
2023-05-01T06:30:38.449Z,5.38
2023-05-01T06:33:05.790Z,4.10
2023-05-01T06:35:34.011Z,4.28
2023-05-01T06:38:02.639Z,4.88
2023-05-01T06:40:31.613Z,4.60
2023-05-01T06:42:59.123Z,4.10
2023-05-01T06:45:28.387Z,4.20
2023-05-01T06:47:55.928Z,4.10
2023-05-01T06:50:23.245Z,4.28
2023-05-01T06:52:50.614Z,4.57
2023-05-01T06:55:17.482Z,4.38
2023-05-01T06:57:45.254Z,4.83
2023-05-01T07:00:12.825Z,4.10
2023-05-01T07:02:40.887Z,4.50
2023-05-01T07:05:08.448Z,4.57
2023-05-01T07:07:37.493Z,4.20
2023-05-01T07:10:06.449Z,4.90
2023-05-01T07:12:33.695Z,4.30
2023-05-01T07:15:01.000Z,4.85
2023-05-01T07:17:29.036Z,4.32
2023-05-01T07:19:56.607Z,4.35
2023-05-01T07:22:24.211Z,4.53
2023-05-01T07:24:51.571Z,4.75
2023-05-01T07:27:18.412Z,5.00
2023-05-01T07:29:45.721Z,4.60
2023-05-01T07:32:13.238Z,4.78
2023-05-01T07:34:40.676Z,4.77
2023-05-01T07:37:07.946Z,4.80
2023-05-01T07:39:34.733Z,5.63
2023-05-01T07:42:01.839Z,4.90
2023-05-01T07:44:29.291Z,4.53
2023-05-01T07:46:56.566Z,4.90
2023-05-01T07:49:23.800Z,4.82
2023-05-01T07:51:51.580Z,4.90
2023-05-01T07:54:22.026Z,4.65
2023-05-01T07:56:49.862Z,4.72
2023-05-01T07:59:16.716Z,4.47
2023-05-01T08:01:43.953Z,5.05
2023-05-01T08:04:10.866Z,5.00
2023-05-01T08:06:38.103Z,7.18
2023-05-01T08:09:05.213Z,5.45
2023-05-01T08:11:33.517Z,5.07
2023-05-01T08:14:01.067Z,4.93
2023-05-01T08:16:28.491Z,6.15
2023-05-01T08:18:55.882Z,5.18
2023-05-01T08:21:23.351Z,8.13
2023-05-01T08:23:51.107Z,4.83
2023-05-01T08:26:19.507Z,5.40
2023-05-01T08:28:48.659Z,5.60
2023-05-01T08:31:15.996Z,5.55
2023-05-01T08:33:44.206Z,5.05
2023-05-01T08:36:12.250Z,5.43
2023-05-01T08:38:39.154Z,5.30
2023-05-01T08:41:06.433Z,5.45
2023-05-01T08:43:33.785Z,4.85
2023-05-01T08:46:01.905Z,4.82
2023-05-01T08:48:30.191Z,5.37
2023-05-01T08:50:58.668Z,4.90
2023-05-01T08:53:26.700Z,5.53
2023-05-01T08:55:56.605Z,5.10
2023-05-01T08:58:25.769Z,5.10
2023-05-01T09:00:53.676Z,5.00
2023-05-01T09:03:21.187Z,5.43
2023-05-01T09:05:48.373Z,6.13
2023-05-01T09:08:16.028Z,4.90
2023-05-01T09:10:46.320Z,4.93
2023-05-01T09:13:13.528Z,4.97
2023-05-01T09:15:40.412Z,5.03
2023-05-01T09:18:09.072Z,4.50
2023-05-01T09:20:37.831Z,5.05
2023-05-01T09:23:05.029Z,5.72
2023-05-01T09:25:32.435Z,4.47
2023-05-01T09:27:59.685Z,4.40
2023-05-01T09:30:34.605Z,4.35
2023-05-01T09:33:15.395Z,4.28
2023-05-01T09:35:52.520Z,4.03
2023-05-01T09:38:26.850Z,3.87
2023-05-01T09:40:56.755Z,4.22
2023-05-01T09:43:28.082Z,5.00
2023-05-01T09:46:06.880Z,3.80
2023-05-01T09:48:36.012Z,4.32
2023-05-01T09:51:25.776Z,4.20
2023-05-01T09:53:55.770Z,4.40
2023-05-01T09:56:23.824Z,4.03
2023-05-01T09:58:52.207Z,3.60
2023-05-01T10:01:19.709Z,3.63
2023-05-01T10:03:54.441Z,4.10
2023-05-01T10:06:28.773Z,4.15
2023-05-01T10:08:56.157Z,4.47
2023-05-01T10:11:23.593Z,3.90
2023-05-01T10:14:11.208Z,4.13
2023-05-01T10:16:39.159Z,3.53
2023-05-01T10:19:06.733Z,3.63
2023-05-01T10:21:34.208Z,3.70
2023-05-01T10:24:05.978Z,3.50
2023-05-01T10:26:36.675Z,4.18
2023-05-01T10:29:04.523Z,3.50
2023-05-01T10:31:33.219Z,3.50
2023-05-01T10:34:04.081Z,3.72
2023-05-01T10:36:42.988Z,3.20
2023-05-01T10:39:32.555Z,4.68
2023-05-01T10:41:59.811Z,3.83
2023-05-01T10:44:27.276Z,3.20
2023-05-01T10:46:55.112Z,3.75
2023-05-01T10:49:22.618Z,4.10
2023-05-01T10:51:59.817Z,4.20
2023-05-01T10:54:31.419Z,4.10
2023-05-01T10:57:01.386Z,4.13
2023-05-01T10:59:47.961Z,4.88
2023-05-01T11:02:22.361Z,4.40
2023-05-01T11:04:51.788Z,4.32
2023-05-01T11:07:19.618Z,4.47
2023-05-01T11:09:51.174Z,4.65
2023-05-01T11:12:46.298Z,4.50
2023-05-01T11:15:32.343Z,4.63
2023-05-01T11:18:00.696Z,4.82
2023-05-01T11:20:29.141Z,4.70
2023-05-01T11:22:57.371Z,4.90
2023-05-01T11:25:33.217Z,4.72
2023-05-01T11:28:02.258Z,4.88
2023-05-01T11:30:42.005Z,4.07
2023-05-01T11:33:10.605Z,4.17
2023-05-01T11:35:38.522Z,4.10
2023-05-01T11:38:05.801Z,4.10
2023-05-01T11:40:35.245Z,4.57
2023-05-01T11:43:02.261Z,4.55
2023-05-01T11:45:29.871Z,4.20
2023-05-01T11:47:57.476Z,4.50
2023-05-01T11:50:32.816Z,4.75
2023-05-01T11:52:59.851Z,4.60
2023-05-01T11:55:34.329Z,4.85
2023-05-01T11:58:02.084Z,5.27
2023-05-01T12:00:31.673Z,4.90
2023-05-01T12:03:03.574Z,5.70
2023-05-01T12:05:32.504Z,5.10
2023-05-01T12:08:10.063Z,5.35
2023-05-01T12:10:38.093Z,5.40
2023-05-01T12:13:06.256Z,5.40
2023-05-01T12:15:38.670Z,5.78
2023-05-01T12:18:06.181Z,5.63
2023-05-01T12:20:47.506Z,5.72
2023-05-01T12:23:18.576Z,5.40
2023-05-01T12:25:46.359Z,5.85
2023-05-01T12:28:15.584Z,6.03
2023-05-01T12:30:43.831Z,5.75
2023-05-01T12:33:18.856Z,25.23
2023-05-01T12:35:47.765Z,6.30
2023-05-01T12:38:16.732Z,5.57
2023-05-01T12:41:11.992Z,5.75
2023-05-01T12:43:39.056Z,5.28
2023-05-01T12:46:06.968Z,5.72
2023-05-01T12:48:39.348Z,5.40
2023-05-01T12:51:06.627Z,6.05
2023-05-01T12:53:33.799Z,5.60
2023-05-01T12:56:01.267Z,5.72
2023-05-01T12:58:38.205Z,6.13
2023-05-01T13:01:06.488Z,6.70
2023-05-01T13:03:34.296Z,6.07
2023-05-01T13:06:03.538Z,6.68
2023-05-01T13:08:32.673Z,6.50
2023-05-01T13:11:12.950Z,6.38
2023-05-01T13:13:40.945Z,6.43
2023-05-01T13:16:13.124Z,6.05
2023-05-01T13:18:53.784Z,6.30
2023-05-01T13:21:24.765Z,6.30
2023-05-01T13:23:59.479Z,5.85
2023-05-01T13:26:35.638Z,6.23
2023-05-01T13:29:05.905Z,6.30
2023-05-01T13:31:33.077Z,6.30
2023-05-01T13:34:00.307Z,6.03
2023-05-01T13:36:32.847Z,5.43
2023-05-01T13:38:59.894Z,5.77
2023-05-01T13:41:28.048Z,5.53
2023-05-01T13:43:57.128Z,5.72
2023-05-01T13:46:27.624Z,5.90
2023-05-01T13:48:54.767Z,5.50
2023-05-01T13:51:24.305Z,6.50
2023-05-01T13:53:53.209Z,5.88
2023-05-01T13:56:21.776Z,5.53
2023-05-01T13:58:50.146Z,5.20
2023-05-01T14:01:20.651Z,5.35
2023-05-01T14:03:48.689Z,6.00
2023-05-01T14:06:17.219Z,5.60
2023-05-01T14:08:45.197Z,6.10
2023-05-01T14:11:13.010Z,4.97
2023-05-01T14:13:47.819Z,5.38
2023-05-01T14:16:25.035Z,5.37
2023-05-01T14:18:55.352Z,4.97
2023-05-01T14:21:23.924Z,5.72
2023-05-01T14:23:54.224Z,4.95
2023-05-01T14:26:24.020Z,5.43
2023-05-01T14:28:51.139Z,5.27
2023-05-01T14:31:29.523Z,4.88
2023-05-01T14:34:01.544Z,4.80
2023-05-01T14:36:31.273Z,4.72
2023-05-01T14:39:02.249Z,5.00
2023-05-01T14:41:29.974Z,4.83
2023-05-01T14:43:57.151Z,4.75
2023-05-01T14:46:32.915Z,5.32
2023-05-01T14:49:01.503Z,5.40
2023-05-01T14:51:31.261Z,5.13
2023-05-01T14:53:58.368Z,5.20
2023-05-01T14:56:25.473Z,5.00
2023-05-01T14:58:52.303Z,5.18
2023-05-01T15:01:19.896Z,5.35
2023-05-01T15:03:47.390Z,5.60
2023-05-01T15:06:14.878Z,5.13
2023-05-01T15:08:41.951Z,5.45
2023-05-01T15:11:09.426Z,5.93
2023-05-01T15:13:36.686Z,5.85
2023-05-01T15:16:03.867Z,5.93
2023-05-01T15:18:31.394Z,5.57
2023-05-01T15:20:58.339Z,6.57
2023-05-01T15:23:27.305Z,5.43
2023-05-01T15:25:54.365Z,5.50
2023-05-01T15:28:21.185Z,5.32
2023-05-01T15:30:48.064Z,5.10
2023-05-01T15:33:18.499Z,4.97
2023-05-01T15:35:47.298Z,5.50
2023-05-01T15:38:14.514Z,5.07
2023-05-01T15:40:43.524Z,5.40
2023-05-01T15:43:10.354Z,5.53
2023-05-01T15:45:42.874Z,5.32
2023-05-01T15:48:11.787Z,5.88
2023-05-01T15:50:39.304Z,6.13
2023-05-01T15:53:06.115Z,5.22
2023-05-01T15:55:34.169Z,5.27
2023-05-01T15:58:02.099Z,4.78
2023-05-01T16:00:29.396Z,5.90
2023-05-01T16:02:56.839Z,5.75
2023-05-01T16:05:24.917Z,5.55
2023-05-01T16:07:55.118Z,5.60
2023-05-01T16:10:22.736Z,5.70
2023-05-01T16:12:51.102Z,6.20
2023-05-01T16:15:18.813Z,5.20
2023-05-01T16:17:46.587Z,6.00
2023-05-01T16:20:14.851Z,5.87
2023-05-01T16:22:43.185Z,5.53
2023-05-01T16:25:11.148Z,5.80
2023-05-01T16:27:44.631Z,6.38
2023-05-01T16:30:14.492Z,6.35
2023-05-01T16:32:42.247Z,5.90
2023-05-01T16:35:17.312Z,5.88
2023-05-01T16:37:44.236Z,5.90
2023-05-01T16:40:16.969Z,5.65
2023-05-01T16:42:53.584Z,6.57
2023-05-01T16:45:21.217Z,6.90
2023-05-01T16:47:48.674Z,6.93
2023-05-01T16:50:16.970Z,7.10
2023-05-01T16:52:44.383Z,6.78
2023-05-01T16:55:11.857Z,6.78
2023-05-01T16:57:39.254Z,6.70
2023-05-01T17:00:09.347Z,6.60
2023-05-01T17:02:37.023Z,6.78
2023-05-01T17:05:04.357Z,6.93
2023-05-01T17:07:31.668Z,6.13
2023-05-01T17:09:59.111Z,6.57
2023-05-01T17:12:27.733Z,6.68
2023-05-01T17:14:54.925Z,7.28
2023-05-01T17:17:22.354Z,7.35
2023-05-01T17:19:49.350Z,8.05
2023-05-01T17:22:16.268Z,7.20
2023-05-01T17:24:43.626Z,7.30
2023-05-01T17:27:10.870Z,8.27
2023-05-01T17:29:39.167Z,7.72
2023-05-01T17:32:06.531Z,8.27
2023-05-01T17:34:34.035Z,7.70
2023-05-01T17:37:01.271Z,7.57
2023-05-01T17:39:28.332Z,7.75
2023-05-01T17:41:55.561Z,7.60
2023-05-01T17:44:22.790Z,7.30
2023-05-01T17:46:50.221Z,7.57
2023-05-01T17:49:17.442Z,7.70
2023-05-01T17:51:45.276Z,8.63
2023-05-01T17:54:12.299Z,8.48
2023-05-01T17:56:39.864Z,8.55
2023-05-01T17:59:07.190Z,8.20
2023-05-01T18:01:34.689Z,8.98
2023-05-01T18:04:01.882Z,8.48
2023-05-01T18:06:29.465Z,9.05
2023-05-01T18:08:56.764Z,9.80
2023-05-01T18:11:23.642Z,10.03
2023-05-01T18:13:50.885Z,10.23
2023-05-01T18:16:18.632Z,10.25
2023-05-01T18:18:48.128Z,10.15
2023-05-01T18:21:15.969Z,10.30
2023-05-01T18:23:43.403Z,11.60
2023-05-01T18:26:10.634Z,11.18
2023-05-01T18:28:37.882Z,12.77
2023-05-01T18:31:04.866Z,11.50
2023-05-01T18:33:31.934Z,11.18
2023-05-01T18:35:59.907Z,12.07
2023-05-01T18:38:28.606Z,12.25
2023-05-01T18:40:56.140Z,12.55
2023-05-01T18:43:23.597Z,12.50
2023-05-01T18:45:50.500Z,12.25
2023-05-01T18:48:17.543Z,12.20
2023-05-01T18:50:54.256Z,13.00
2023-05-01T18:53:28.534Z,14.52
2023-05-01T18:55:55.998Z,14.00
2023-05-01T18:58:23.254Z,14.40
2023-05-01T19:00:50.590Z,14.60
2023-05-01T19:03:18.616Z,15.50
2023-05-01T19:05:46.011Z,14.35
2023-05-01T19:08:14.612Z,14.88
2023-05-01T19:10:42.463Z,14.27
2023-05-01T19:13:10.363Z,14.90
2023-05-01T19:15:37.888Z,15.23
2023-05-01T19:18:05.162Z,15.43
2023-05-01T19:20:32.467Z,16.20
2023-05-01T19:22:59.868Z,16.17
2023-05-01T19:25:27.505Z,16.27
2023-05-01T19:27:56.130Z,16.00
2023-05-01T19:30:23.707Z,15.82
2023-05-01T19:32:51.911Z,16.48
2023-05-01T19:35:19.211Z,16.77
2023-05-01T19:37:48.165Z,17.63
2023-05-01T19:40:16.621Z,17.27
2023-05-01T19:42:44.362Z,17.80
2023-05-01T19:45:11.752Z,17.08
2023-05-01T19:47:39.090Z,17.67
2023-05-01T19:50:06.671Z,16.73
2023-05-01T19:52:34.029Z,18.65
2023-05-01T19:55:04.215Z,18.67
2023-05-01T19:57:31.706Z,18.05
2023-05-01T19:59:59.356Z,18.77
2023-05-01T20:02:26.959Z,20.00
2023-05-01T20:04:54.350Z,19.05
2023-05-01T20:07:21.661Z,20.08
2023-05-01T20:09:49.068Z,19.50
2023-05-01T20:12:15.948Z,21.10
2023-05-01T20:14:43.583Z,19.97
2023-05-01T20:17:11.037Z,19.67
2023-05-01T20:19:39.551Z,18.95
2023-05-01T20:22:06.963Z,19.15
2023-05-01T20:24:34.218Z,18.15
2023-05-01T20:27:01.817Z,18.00
2023-05-01T20:29:29.029Z,17.65
2023-05-01T20:31:56.368Z,16.63
2023-05-01T20:34:24.087Z,17.60
2023-05-01T20:36:51.354Z,17.30
2023-05-01T20:39:18.735Z,17.60
2023-05-01T20:41:45.930Z,16.15
2023-05-01T20:44:13.157Z,17.33
2023-05-01T20:46:40.434Z,15.40
2023-05-01T20:49:10.021Z,15.48
2023-05-01T20:51:38.321Z,17.23
2023-05-01T20:54:06.320Z,17.27
2023-05-01T20:56:33.604Z,15.60
2023-05-01T20:59:03.368Z,15.38
2023-05-01T21:01:32.074Z,12.85
2023-05-01T21:04:00.061Z,14.20
2023-05-01T21:06:28.048Z,15.15
2023-05-01T21:08:55.728Z,15.05
2023-05-01T21:11:22.596Z,13.55
2023-05-01T21:13:49.901Z,15.85
2023-05-01T21:16:17.605Z,13.40
2023-05-01T21:18:44.643Z,16.10
2023-05-01T21:21:15.356Z,16.13
2023-05-01T21:23:48.326Z,14.60
2023-05-01T21:26:16.346Z,15.68
2023-05-01T21:28:43.681Z,16.17
2023-05-01T21:31:12.973Z,15.27
2023-05-01T21:33:40.800Z,15.77
2023-05-01T21:36:08.196Z,16.63
2023-05-01T21:38:36.321Z,16.13
2023-05-01T21:41:03.552Z,16.87
2023-05-01T21:43:33.735Z,17.02
2023-05-01T21:46:01.220Z,16.65
2023-05-01T21:48:32.830Z,14.52
2023-05-01T21:51:00.709Z,16.70
2023-05-01T21:53:29.135Z,16.53
2023-05-01T21:55:56.402Z,17.63
2023-05-01T21:58:24.673Z,17.75
2023-05-01T22:00:52.367Z,17.63
2023-05-01T22:03:19.417Z,18.52
2023-05-01T22:05:46.313Z,16.57
2023-05-01T22:08:13.760Z,17.55
2023-05-01T22:10:42.892Z,18.65
2023-05-01T22:13:09.878Z,16.92
2023-05-01T22:15:37.323Z,17.38
2023-05-01T22:18:04.641Z,18.03
2023-05-01T22:20:32.314Z,17.83
2023-05-01T22:22:59.810Z,18.17
2023-05-01T22:25:27.019Z,16.48
2023-05-01T22:27:54.231Z,17.20
2023-05-01T22:30:21.468Z,17.43
2023-05-01T22:32:48.370Z,17.08
2023-05-01T22:35:15.663Z,18.23
2023-05-01T22:37:43.169Z,16.75
2023-05-01T22:40:10.655Z,17.45
2023-05-01T22:42:37.893Z,16.03
2023-05-01T22:45:05.394Z,15.15
2023-05-01T22:47:32.360Z,17.10
2023-05-01T22:49:59.830Z,15.80
2023-05-01T22:52:27.465Z,15.23
2023-05-01T22:54:56.015Z,14.00
2023-05-01T22:57:23.444Z,13.82
2023-05-01T22:59:50.758Z,13.30
2023-05-01T23:02:18.962Z,13.82
2023-05-01T23:04:46.446Z,13.90
2023-05-01T23:07:16.168Z,13.97
2023-05-01T23:09:43.034Z,13.73
2023-05-01T23:12:18.435Z,12.65
2023-05-01T23:14:46.577Z,14.18
2023-05-01T23:17:14.634Z,14.85
2023-05-01T23:19:43.456Z,15.97
2023-05-01T23:22:11.054Z,14.38
2023-05-01T23:24:48.352Z,14.02
2023-05-01T23:27:19.659Z,14.90
2023-05-01T23:29:54.740Z,14.68
2023-05-01T23:32:26.900Z,16.27
2023-05-01T23:35:02.425Z,16.10
2023-05-01T23:37:29.338Z,14.80
2023-05-01T23:39:58.691Z,14.25
2023-05-01T23:42:26.151Z,13.95
2023-05-01T23:44:53.391Z,15.10
2023-05-01T23:47:20.900Z,15.85
2023-05-01T23:49:48.482Z,15.05
2023-05-01T23:52:16.249Z,13.93
2023-05-01T23:54:43.536Z,12.38
2023-05-01T23:57:10.775Z,14.37
2023-05-01T23:59:38.588Z,13.50
